Northfield, MN (55057)

4:00 AM CST on December 08, 2016 (GMT -0600)
Spruce Court Weather | | Change Station

Elev 960 ft 44.45 °N, 93.17 °W | Updated 1 second ago

Overcast
Overcast
14.0 °F
Feels Like 14 °F
N
2.3
Wind Variable Wind from South
Gusts 2.3 mph

Today
High -- | Low -- °F
--% Chance of Precip.
Yesterday
High -- | Low -- °F
Precip. -- in
Pressure 30.19 in
Visibility 5.0 miles
Clouds Mostly Cloudy 1400 ft
Mostly Cloudy 2200 ft
Overcast 4700 ft
Windchill 14 °F
Dew Point 12 °F
Humidity 91%
Rainfall 0.00 in
Snow Depth Not available.
7:36 AM 4:32 PM
First Quarter, 62% visible
METAR KSYN 080954Z AUTO 27013G19KT 5SM -SN BKN014 BKN022 OVC047 M09/M12 A3019 RMK AO2 T10901120
Pressure 30.19 in
Visibility 5.0 miles
Clouds Mostly Cloudy 1400 ft
Mostly Cloudy 2200 ft
Overcast 4700 ft
Windchill 14 °F
Dew Point 12 °F
Humidity 91%
Rainfall 0.00 in
Snow Depth Not available.
7:36 AM 4:32 PM
First Quarter, 62% visible
METAR KSYN 080954Z AUTO 27013G19KT 5SM -SN BKN014 BKN022 OVC047 M09/M12 A3019 RMK AO2 T10901120

10-Day Weather Forecast

Almanac

Astronomy

Dec. 08, 2016 Rise Set
Actual Time
Civil Twilight
Nautical Twilight
Astronomical Twilight
Moon
Length of Visible Light
Length of Day
Tomorrow will be .
, % of the Moon is Illuminated

Today's Extremes

State Highs State Lows

Community

WunderPhotos

Upload Photos

1,956,261 photos uploaded!

WunderBlog® & News

Nearby

Air Quality

  Air Quality AQ Index Pollutant
Not available.

Snow Depth

Station Depth Elevation

Earthquake Activity

City Distance Mag. Time & Date
Minimum magnitude displayed is 2.5.

Coastal Water Temperatures

Place Temperature

Stations

Nearby Weather Stations

Station Location Temp. Windchill Dew Point Humidity Wind Precip. Elev Updated Type
                   

Watches & Warnings

There are currently no watches in effect.